Time;durP1;ratioP1;P1;durP2;ratioP2;P2;SDS_P1;SDS_P2;PMS_P1;PMS_P2;Temp;Humidity;BMP_temperature;BMP_pressure;BME280_temperature;BME280_humidity;BME280_pressure;Samples;Min_cycle;Max_cycle;Signal;HPM_P1;HPM_P2
2023/09/15 00:00:44;;;;;;;12.90;6.30;;;;;;;12.09;100.00;100549.70;105589;1260;61217;-59
2023/09/15 00:03:11;;;;;;;12.40;7.10;;;;;;;12.08;100.00;100553.09;105001;1262;61163;-60
2023/09/15 00:05:39;;;;;;;13.80;7.00;;;;;;;12.08;100.00;100558.71;105238;1262;74961;-59
2023/09/15 00:08:06;;;;;;;11.10;7.00;;;;;;;12.08;100.00;100561.61;105389;1259;67629;-62
2023/09/15 00:10:34;;;;;;;11.20;7.00;;;;;;;12.07;100.00;100557.50;105111;1258;71244;-61
2023/09/15 00:13:02;;;;;;;11.30;7.60;;;;;;;12.08;100.00;100562.30;105280;1266;61119;-64
2023/09/15 00:15:29;;;;;;;13.10;7.60;;;;;;;12.08;100.00;100566.64;105522;1262;61235;-59
2023/09/15 00:17:58;;;;;;;15.70;8.20;;;;;;;12.08;100.00;100569.96;105128;1260;75343;-61
2023/09/15 00:20:26;;;;;;;13.20;7.50;;;;;;;12.08;100.00;100566.09;105549;1262;67040;-61
2023/09/15 00:22:54;;;;;;;15.50;7.70;;;;;;;12.13;100.00;100563.12;105402;1260;72695;-62
2023/09/15 00:25:26;;;;;;;15.00;8.20;;;;;;;12.16;100.00;100560.27;105316;1262;61360;-60
2023/09/15 00:27:57;;;;;;;12.60;8.20;;;;;;;12.19;100.00;100561.14;105405;1259;61212;-60
2023/09/15 00:30:26;;;;;;;12.30;7.60;;;;;;;12.22;100.00;100562.00;105043;1265;189876;-59
2023/09/15 00:32:53;;;;;;;12.40;7.70;;;;;;;12.24;100.00;100561.39;105100;1262;65397;-61
2023/09/15 00:35:22;;;;;;;17.10;8.80;;;;;;;12.29;100.00;100552.46;105159;1260;72737;-61
2023/09/15 00:37:50;;;;;;;14.10;8.00;;;;;;;12.33;100.00;100554.43;104930;1259;61841;-59
2023/09/15 00:40:19;;;;;;;14.70;8.70;;;;;;;12.36;100.00;100550.71;105678;1262;61006;-64
2023/09/15 00:42:47;;;;;;;15.30;8.20;;;;;;;12.39;100.00;100549.23;105077;1264;74744;-63
2023/09/15 00:45:15;;;;;;;15.10;8.30;;;;;;;12.43;100.00;100540.29;105124;1260;66502;-63
2023/09/15 00:47:43;;;;;;;13.40;8.20;;;;;;;12.46;100.00;100533.86;105219;1264;71388;-60
2023/09/15 00:50:13;;;;;;;12.40;8.10;;;;;;;12.47;100.00;100532.02;105455;1265;61301;-59
2023/09/15 00:52:50;;;;;;;17.10;10.00;;;;;;;12.45;100.00;100538.28;104976;1260;61246;-60
2023/09/15 00:55:19;;;;;;;12.70;8.70;;;;;;;12.42;100.00;100541.96;104832;1265;74732;-60
2023/09/15 00:57:48;;;;;;;16.60;9.30;;;;;;;12.39;100.00;100542.48;104834;1263;66063;-60
2023/09/15 01:00:17;;;;;;;16.00;10.40;;;;;;;12.39;100.00;100532.55;105013;1259;72636;-61
2023/09/15 01:02:45;;;;;;;17.60;9.60;;;;;;;12.40;100.00;100523.69;105168;1268;61257;-60
2023/09/15 01:05:19;;;;;;;18.30;10.80;;;;;;;12.39;100.00;100526.13;104706;1266;61294;-61
2023/09/15 01:07:48;;;;;;;16.50;10.00;;;;;;;12.36;100.00;100532.70;104948;1262;75341;-59
2023/09/15 01:10:16;;;;;;;18.30;9.20;;;;;;;12.35;100.00;100531.52;105363;1262;67902;-59
2023/09/15 01:12:43;;;;;;;16.00;10.30;;;;;;;12.34;100.00;100526.40;105445;1265;71358;-58
2023/09/15 01:15:10;;;;;;;18.50;10.60;;;;;;;12.34;100.00;100525.27;105343;1262;61131;-60
2023/09/15 01:17:58;;;;;;;17.50;10.30;;;;;;;12.36;100.00;100524.05;105070;1265;61234;-59
2023/09/15 01:20:45;;;;;;;21.40;11.20;;;;;;;12.36;100.00;100519.80;105475;1257;73469;-59
2023/09/15 01:23:14;;;;;;;18.50;10.60;;;;;;;12.38;100.00;100522.51;105491;1263;67191;-59
2023/09/15 01:26:09;;;;;;;15.90;10.00;;;;;;;12.38;100.00;100517.14;104804;1273;72269;-59
2023/09/15 01:28:50;;;;;;;22.70;11.20;;;;;;;12.37;100.00;100519.55;105436;1262;61952;-60
2023/09/15 01:31:17;;;;;;;14.40;9.90;;;;;;;12.35;100.00;100521.91;105380;1262;61241;-59
2023/09/15 01:33:45;;;;;;;17.70;9.40;;;;;;;12.35;100.00;100519.66;105661;1262;74752;-59
2023/09/15 01:36:12;;;;;;;20.40;11.10;;;;;;;12.36;100.00;100521.77;105304;1264;67149;-59
2023/09/15 01:38:39;;;;;;;19.00;9.80;;;;;;;12.38;100.00;100522.38;105113;1263;72672;-60
2023/09/15 01:41:06;;;;;;;20.90;10.80;;;;;;;12.42;100.00;100522.13;105609;1257;61646;-59
2023/09/15 01:43:33;;;;;;;17.70;10.20;;;;;;;12.45;100.00;100524.20;105215;1262;61329;-59
2023/09/15 01:46:01;;;;;;;19.90;11.30;;;;;;;12.47;100.00;100519.61;105106;1262;73822;-58
2023/09/15 01:48:29;;;;;;;18.60;9.70;;;;;;;12.48;100.00;100521.71;105422;1263;67170;-59
2023/09/15 01:50:55;;;;;;;15.50;8.90;;;;;;;12.50;100.00;100522.92;105610;1258;72698;-60
2023/09/15 01:53:23;;;;;;;18.50;10.70;;;;;;;12.52;100.00;100527.48;105349;1263;61157;-60
2023/09/15 01:55:50;;;;;;;16.20;10.20;;;;;;;12.56;100.00;100529.85;105375;1262;61260;-59
2023/09/15 01:58:18;;;;;;;16.50;9.70;;;;;;;12.58;100.00;100534.77;105225;1262;74954;-59
2023/09/15 02:00:46;;;;;;;15.60;9.80;;;;;;;12.61;100.00;100525.63;105379;1263;67242;-60
2023/09/15 02:03:13;;;;;;;17.80;10.40;;;;;;;12.62;100.00;100524.03;105507;1263;72607;-60
2023/09/15 02:05:40;;;;;;;15.70;10.30;;;;;;;12.61;100.00;100527.56;105279;1265;61267;-59
2023/09/15 02:08:07;;;;;;;18.80;10.10;;;;;;;12.60;100.00;100528.71;105075;1257;60755;-59
2023/09/15 02:10:35;;;;;;;19.90;9.70;;;;;;;12.60;100.00;100525.73;105591;1262;74658;-60
2023/09/15 02:13:02;;;;;;;15.50;8.70;;;;;;;12.61;100.00;100525.02;105423;1257;65955;-60
2023/09/15 02:15:29;;;;;;;11.90;8.80;;;;;;;12.61;100.00;100523.05;105416;1262;72594;-59
2023/09/15 02:17:58;;;;;;;13.10;9.00;;;;;;;12.61;100.00;100523.54;105425;1263;61152;-59
2023/09/15 02:20:25;;;;;;;14.90;9.50;;;;;;;12.61;100.00;100525.34;105151;1262;61125;-59
2023/09/15 02:22:52;;;;;;;15.30;9.50;;;;;;;12.60;100.00;100526.54;105619;1257;74585;-59
2023/09/15 02:25:19;;;;;;;14.60;9.40;;;;;;;12.58;100.00;100522.78;105179;1263;67125;-61
2023/09/15 02:27:46;;;;;;;17.70;9.60;;;;;;;12.55;100.00;100525.21;105263;1257;72476;-60
2023/09/15 02:30:13;;;;;;;16.10;9.50;;;;;;;12.51;100.00;100523.83;105498;1260;61830;-60
2023/09/15 02:32:40;;;;;;;16.20;9.60;;;;;;;12.46;100.00;100517.41;105494;1259;61125;-61
2023/09/15 02:35:09;;;;;;;18.50;10.00;;;;;;;12.42;100.00;100521.05;105202;1263;74716;-61
2023/09/15 02:37:36;;;;;;;18.40;10.10;;;;;;;12.38;100.00;100526.20;105130;1262;66408;-59
2023/09/15 02:40:05;;;;;;;19.30;11.60;;;;;;;12.35;100.00;100527.50;105003;1263;72701;-59
2023/09/15 02:42:35;;;;;;;21.70;10.90;;;;;;;12.32;100.00;100531.38;105412;1260;61181;-60
2023/09/15 02:45:02;;;;;;;19.70;11.00;;;;;;;12.29;100.00;100532.36;104838;1258;61860;-61
2023/09/15 02:47:31;;;;;;;17.80;11.50;;;;;;;12.28;100.00;100532.84;105167;1259;73235;-60
2023/09/15 02:49:58;;;;;;;22.50;10.30;;;;;;;12.29;100.00;100531.76;105086;1260;67372;-61
2023/09/15 02:52:25;;;;;;;21.50;12.80;;;;;;;12.28;100.00;100532.67;105101;1262;71445;-60
2023/09/15 02:54:52;;;;;;;17.50;10.90;;;;;;;12.29;100.00;100536.91;105015;1262;61212;-61
2023/09/15 02:57:21;;;;;;;20.50;11.70;;;;;;;12.30;100.00;100537.87;105148;1260;61270;-59
2023/09/15 02:59:48;;;;;;;21.00;12.50;;;;;;;12.30;100.00;100541.82;105271;1262;74518;-60
2023/09/15 03:02:16;;;;;;;23.50;13.00;;;;;;;12.30;100.00;100541.13;105304;1257;67029;-59
2023/09/15 03:04:45;;;;;;;26.00;12.00;;;;;;;12.30;100.00;100542.58;105118;1260;72886;-60
2023/09/15 03:07:13;;;;;;;20.00;11.10;;;;;;;12.30;100.00;100544.51;104778;1266;61327;-59
2023/09/15 03:09:40;;;;;;;21.00;13.30;;;;;;;12.29;100.00;100550.50;105258;1261;61243;-61
2023/09/15 03:12:07;;;;;;;20.10;11.90;;;;;;;12.29;100.00;100552.79;105004;1262;75169;-59
2023/09/15 03:14:34;;;;;;;22.50;11.80;;;;;;;12.29;100.00;100552.83;105354;1257;66206;-59
2023/09/15 03:17:03;;;;;;;21.80;11.80;;;;;;;12.30;100.00;100554.27;105629;1263;72636;-60
2023/09/15 03:19:32;;;;;;;21.10;12.30;;;;;;;12.33;100.00;100556.98;105242;1257;61449;-59
2023/09/15 03:21:59;;;;;;;18.40;11.50;;;;;;;12.38;100.00;100555.48;105285;1257;61267;-60
2023/09/15 03:24:28;;;;;;;18.80;11.90;;;;;;;12.45;100.00;100559.52;105343;1257;73611;-62
2023/09/15 03:26:55;;;;;;;23.80;11.90;;;;;;;12.47;100.00;100564.38;105872;1257;65913;-61
2023/09/15 03:29:23;;;;;;;21.30;12.10;;;;;;;12.47;100.00;100566.70;105622;1263;72003;-60
2023/09/15 03:31:50;;;;;;;24.20;12.40;;;;;;;12.46;100.00;100563.14;105050;1264;61225;-61
2023/09/15 03:34:18;;;;;;;22.70;12.50;;;;;;;12.45;100.00;100565.35;105331;1263;61348;-60
2023/09/15 03:36:45;;;;;;;21.70;12.60;;;;;;;12.43;100.00;100568.72;105298;1257;74781;-61
2023/09/15 03:39:13;;;;;;;26.30;13.20;;;;;;;12.40;100.00;100569.55;105689;1257;65706;-59
2023/09/15 03:41:40;;;;;;;22.80;12.50;;;;;;;12.39;100.00;100574.73;105553;1264;71436;-61
2023/09/15 03:44:07;;;;;;;19.30;12.60;;;;;;;12.38;100.00;100574.47;105253;1265;61264;-62
2023/09/15 03:46:35;;;;;;;24.80;13.20;;;;;;;12.41;100.00;100576.96;105235;1258;61126;-61
2023/09/15 03:49:03;;;;;;;20.70;13.10;;;;;;;12.44;100.00;100578.70;105258;1263;73850;-60
2023/09/15 03:51:30;;;;;;;19.30;12.90;;;;;;;12.47;100.00;100581.79;105126;1258;66158;-59
2023/09/15 03:53:57;;;;;;;18.90;11.80;;;;;;;12.51;100.00;100581.66;105486;1263;72742;-60
2023/09/15 03:56:25;;;;;;;23.70;12.50;;;;;;;12.54;100.00;100585.96;105431;1263;61803;-60
2023/09/15 03:58:52;;;;;;;21.80;12.50;;;;;;;12.57;100.00;100584.77;105491;1261;60275;-62
2023/09/15 04:01:23;;;;;;;19.50;12.10;;;;;;;12.59;100.00;100584.67;105311;1263;74552;-62
2023/09/15 04:03:50;;;;;;;;;;;;;;;12.60;100.00;100581.06;105387;1258;67015;-60
2023/09/15 04:06:17;;;;;;;22.60;13.70;;;;;;;12.61;100.00;100580.55;105516;1257;71155;-61
2023/09/15 04:08:45;;;;;;;22.00;13.20;;;;;;;12.61;100.00;100576.80;105291;1258;61233;-60
2023/09/15 04:11:13;;;;;;;22.50;13.40;;;;;;;12.60;100.00;100573.25;104877;1271;62927;-59
2023/09/15 04:13:40;;;;;;;23.60;13.80;;;;;;;12.57;100.00;100569.28;105556;1257;74463;-60
2023/09/15 04:16:07;;;;;;;24.60;14.30;;;;;;;12.52;100.00;100568.48;105288;1257;67021;-60
2023/09/15 04:18:34;;;;;;;20.80;13.90;;;;;;;12.44;100.00;100569.50;105238;1263;72674;-61
2023/09/15 04:21:02;;;;;;;25.90;14.80;;;;;;;12.35;100.00;100577.13;105386;1262;60782;-60
2023/09/15 04:23:29;;;;;;;26.10;15.10;;;;;;;12.29;100.00;100588.05;105534;1264;61238;-60
2023/09/15 04:25:57;;;;;;;27.80;15.70;;;;;;;12.24;100.00;100597.00;105126;1261;73701;-61
2023/09/15 04:28:24;;;;;;;22.10;15.10;;;;;;;12.19;100.00;100595.92;105127;1258;66879;-61
2023/09/15 04:30:51;;;;;;;30.40;15.90;;;;;;;12.16;100.00;100598.23;105211;1262;71261;-61
2023/09/15 04:33:18;;;;;;;26.50;15.20;;;;;;;12.13;100.00;100603.73;105553;1262;61234;-60
2023/09/15 04:35:46;;;;;;;24.30;15.30;;;;;;;12.11;100.00;100610.66;105047;1264;61217;-60
2023/09/15 04:38:13;;;;;;;26.00;15.20;;;;;;;12.12;100.00;100607.95;105542;1262;74607;-61
2023/09/15 04:40:41;;;;;;;28.10;16.50;;;;;;;12.12;100.00;100603.05;105362;1258;67220;-60
2023/09/15 04:43:08;;;;;;;29.60;16.20;;;;;;;12.14;100.00;100610.14;105299;1257;72857;-60
2023/09/15 04:45:36;;;;;;;26.80;14.80;;;;;;;12.18;100.00;100609.81;105743;1259;61231;-60
2023/09/15 04:48:04;;;;;;;29.00;16.60;;;;;;;12.22;100.00;100612.88;105444;1257;61815;-61
2023/09/15 04:50:31;;;;;;;26.60;17.20;;;;;;;12.26;100.00;100610.59;105035;1263;74496;-60
2023/09/15 04:53:02;;;;;;;33.20;17.00;;;;;;;12.31;100.00;100607.41;104963;1264;66571;-60
2023/09/15 04:55:30;;;;;;;29.40;16.70;;;;;;;12.37;100.00;100610.01;105590;1257;72724;-60
2023/09/15 04:57:57;;;;;;;31.30;17.20;;;;;;;12.44;100.00;100606.02;105542;1262;61248;-61
2023/09/15 05:00:29;;;;;;;29.40;17.10;;;;;;;12.51;100.00;100610.55;105611;1264;61178;-59
2023/09/15 05:02:58;;;;;;;24.70;15.50;;;;;;;12.58;100.00;100609.25;105172;1261;75543;-61
2023/09/15 05:05:28;;;;;;;29.90;17.00;;;;;;;12.65;100.00;100605.96;105559;1258;64847;-61
2023/09/15 05:07:56;;;;;;;30.10;15.90;;;;;;;12.73;100.00;100606.20;105422;1257;72583;-61
2023/09/15 05:10:23;;;;;;;32.30;17.40;;;;;;;12.83;100.00;100611.23;105185;1259;61324;-61
2023/09/15 05:12:51;;;;;;;27.20;16.90;;;;;;;12.92;100.00;100605.06;105210;1257;60397;-61
2023/09/15 05:15:20;;;;;;;29.80;17.50;;;;;;;13.01;100.00;100604.56;105265;1258;73310;-60
2023/09/15 05:17:47;;;;;;;27.90;15.30;;;;;;;13.10;100.00;100606.09;105562;1257;67003;-61
2023/09/15 05:20:15;;;;;;;28.40;15.00;;;;;;;13.17;100.00;100605.89;105349;1263;72724;-60
2023/09/15 05:22:42;;;;;;;22.40;14.40;;;;;;;13.24;100.00;100601.90;105596;1258;61636;-60
2023/09/15 05:25:10;;;;;;;24.20;14.50;;;;;;;13.29;100.00;100599.72;105316;1262;61368;-59
2023/09/15 05:27:37;;;;;;;27.10;15.00;;;;;;;13.33;100.00;100595.06;105121;1257;73256;-59
2023/09/15 05:30:05;;;;;;;26.60;14.80;;;;;;;13.35;100.00;100595.97;104998;1264;65248;-59
2023/09/15 05:32:34;;;;;;;25.40;14.70;;;;;;;13.37;100.00;100594.17;105134;1260;72655;-61
2023/09/15 05:35:01;;;;;;;24.70;14.10;;;;;;;13.39;100.00;100596.31;105368;1263;61424;-60
2023/09/15 05:37:28;;;;;;;24.50;14.20;;;;;;;13.42;100.00;100594.73;105125;1258;61259;-59
2023/09/15 05:39:55;;;;;;;28.60;14.80;;;;;;;13.43;100.00;100593.63;105204;1260;74600;-59
2023/09/15 05:42:23;;;;;;;26.00;15.40;;;;;;;13.45;100.00;100590.79;105059;1259;67129;-59
2023/09/15 05:44:50;;;;;;;27.50;14.50;;;;;;;13.48;100.00;100592.09;105388;1261;72511;-60
2023/09/15 05:47:17;;;;;;;24.70;13.80;;;;;;;13.52;100.00;100593.39;105450;1257;61342;-59
2023/09/15 05:49:44;;;;;;;27.30;14.50;;;;;;;13.56;100.00;100586.98;105205;1257;61327;-60
2023/09/15 05:52:11;;;;;;;31.00;15.50;;;;;;;13.60;100.00;100585.66;105327;1259;74182;-61
2023/09/15 05:54:38;;;;;;;26.10;14.50;;;;;;;13.67;100.00;100581.02;105581;1258;67204;-60
2023/09/15 05:57:05;;;;;;;27.60;15.60;;;;;;;13.74;100.00;100579.44;105386;1260;72686;-61
2023/09/15 05:59:32;;;;;;;30.10;16.10;;;;;;;13.79;100.00;100574.70;105226;1258;61701;-60
2023/09/15 06:01:59;;;;;;;26.90;15.40;;;;;;;13.85;100.00;100573.75;105298;1259;61349;-60
2023/09/15 06:04:26;;;;;;;27.30;15.60;;;;;;;13.91;100.00;100568.53;105257;1262;74374;-61
2023/09/15 06:06:53;;;;;;;26.20;15.50;;;;;;;13.98;100.00;100563.83;105298;1263;65513;-61
2023/09/15 06:09:21;;;;;;;24.10;14.80;;;;;;;14.05;100.00;100566.30;105264;1257;71472;-62
2023/09/15 06:11:48;;;;;;;23.70;14.50;;;;;;;14.14;100.00;100560.69;105480;1262;61267;-62
2023/09/15 06:14:16;;;;;;;26.30;14.70;;;;;;;14.22;100.00;100554.04;105610;1257;60384;-62
2023/09/15 06:16:43;;;;;;;29.10;15.50;;;;;;;14.29;100.00;100553.41;105297;1257;75988;-60
2023/09/15 06:19:10;;;;;;;25.60;15.00;;;;;;;14.38;100.00;100554.59;105288;1258;65550;-60
2023/09/15 06:21:37;;;;;;;23.50;14.40;;;;;;;14.46;100.00;100555.40;105254;1262;72701;-62
2023/09/15 06:24:04;;;;;;;26.70;15.00;;;;;;;14.56;100.00;100555.11;105386;1262;61214;-62
2023/09/15 06:26:33;;;;;;;24.30;15.30;;;;;;;14.68;100.00;100556.92;105393;1258;61244;-61
2023/09/15 06:29:00;;;;;;;25.50;14.10;;;;;;;14.78;100.00;100552.16;105301;1257;76108;-61
2023/09/15 06:31:28;;;;;;;23.10;14.90;;;;;;;14.88;100.00;100556.35;105205;1257;65977;-63
2023/09/15 06:33:55;;;;;;;21.10;13.60;;;;;;;14.96;100.00;100554.45;105418;1262;71844;-62
2023/09/15 06:36:22;;;;;;;22.60;14.40;;;;;;;15.06;100.00;100558.98;105349;1258;61098;-61
2023/09/15 06:38:50;;;;;;;24.10;13.60;;;;;;;15.18;100.00;100560.62;105322;1257;61257;-60
2023/09/15 06:41:17;;;;;;;22.40;12.70;;;;;;;15.31;100.00;100558.85;105362;1262;74659;-61
2023/09/15 06:43:44;;;;;;;27.00;13.90;;;;;;;15.47;100.00;100556.89;105311;1257;65985;-61
2023/09/15 06:46:11;;;;;;;24.80;13.90;;;;;;;15.60;100.00;100553.05;105415;1262;71350;-62
2023/09/15 06:48:38;;;;;;;23.80;14.70;;;;;;;15.70;100.00;100545.89;105463;1262;61343;-61
2023/09/15 06:51:05;;;;;;;26.80;15.30;;;;;;;15.78;100.00;100544.70;105332;1262;61299;-61
2023/09/15 06:53:32;;;;;;;24.00;14.00;;;;;;;15.87;100.00;100543.16;105322;1257;74438;-60
2023/09/15 06:55:59;;;;;;;21.30;14.30;;;;;;;15.96;100.00;100536.53;105916;1258;65011;-61
2023/09/15 06:58:26;;;;;;;25.30;14.10;;;;;;;16.07;100.00;100537.48;105943;1257;73142;-60
2023/09/15 07:00:55;;;;;;;23.10;13.90;;;;;;;16.18;100.00;100533.23;105605;1257;61324;-63
2023/09/15 07:03:23;;;;;;;27.90;13.30;;;;;;;16.28;100.00;100532.93;105139;1262;61164;-61
2023/09/15 07:05:51;;;;;;;26.40;12.90;;;;;;;16.42;100.00;100532.05;105537;1263;74668;-60
2023/09/15 07:08:18;;;;;;;22.00;13.30;;;;;;;16.55;100.00;100528.65;105712;1257;65533;-63
2023/09/15 07:10:50;;;;;;;26.10;15.00;;;;;;;16.64;100.00;100531.58;105058;1258;71836;-60
2023/09/15 07:13:18;;;;;;;24.10;15.20;;;;;;;16.72;100.00;100538.89;105212;1257;61368;-61
2023/09/15 07:15:45;;;;;;;23.80;15.80;;;;;;;16.80;100.00;100538.42;105215;1258;61256;-60
2023/09/15 07:18:12;;;;;;;27.20;15.40;;;;;;;16.89;100.00;100536.96;105499;1257;74797;-64
2023/09/15 07:20:40;;;;;;;27.90;15.50;;;;;;;16.98;100.00;100536.43;105568;1257;67771;-60
2023/09/15 07:23:07;;;;;;;24.40;15.40;;;;;;;17.08;100.00;100531.40;105345;1260;72802;-60
2023/09/15 07:25:34;;;;;;;26.80;14.70;;;;;;;17.18;100.00;100530.06;105358;1263;61678;-62
2023/09/15 07:28:03;;;;;;;35.10;17.70;;;;;;;17.27;100.00;100530.70;105343;1257;60441;-60
2023/09/15 07:30:30;;;;;;;28.10;16.10;;;;;;;17.34;100.00;100529.73;105452;1262;73594;-62
2023/09/15 07:32:57;;;;;;;28.20;15.90;;;;;;;17.43;100.00;100531.65;105419;1258;65959;-60
2023/09/15 07:35:25;;;;;;;26.30;14.70;;;;;;;17.49;100.00;100523.38;105134;1262;73261;-63
2023/09/15 07:37:52;;;;;;;26.30;14.60;;;;;;;17.57;100.00;100519.14;105159;1258;61594;-60
2023/09/15 07:40:22;;;;;;;26.30;14.00;;;;;;;17.67;100.00;100516.66;105533;1262;61137;-62
2023/09/15 07:42:52;;;;;;;24.20;13.10;;;;;;;17.77;100.00;100517.16;105345;1258;74738;-60
2023/09/15 07:45:19;;;;;;;28.60;13.60;;;;;;;17.89;100.00;100517.77;105343;1257;67276;-62
2023/09/15 07:47:46;;;;;;;24.20;13.20;;;;;;;18.01;100.00;100516.40;104946;1262;73157;-60
2023/09/15 07:50:16;;;;;;;30.60;13.60;;;;;;;18.12;100.00;100518.69;106541;1257;61232;-61
2023/09/15 07:52:45;;;;;;;24.80;12.90;;;;;;;18.25;100.00;100519.11;105089;1257;61277;-61
2023/09/15 07:55:12;;;;;;;25.10;12.90;;;;;;;18.37;100.00;100523.98;105524;1262;74602;-63
2023/09/15 07:57:39;;;;;;;20.60;12.60;;;;;;;18.47;100.00;100531.45;105374;1262;67693;-60
2023/09/15 08:00:07;;;;;;;21.40;12.60;;;;;;;18.55;100.00;100534.34;105169;1257;72703;-63
2023/09/15 08:02:40;;;;;;;22.60;12.30;;;;;;;18.61;100.00;100540.58;105515;1258;61773;-60
2023/09/15 08:05:08;;;;;;;21.80;12.90;;;;;;;18.66;100.00;100551.85;105348;1257;61224;-60
2023/09/15 08:07:35;;;;;;;20.30;11.80;;;;;;;18.73;100.00;100554.56;105261;1257;73464;-61
2023/09/15 08:10:04;;;;;;;22.10;12.20;;;;;;;18.79;100.00;100562.32;105445;1258;67741;-61
2023/09/15 08:12:32;;;;;;;22.90;11.50;;;;;;;18.83;100.00;100574.29;105459;1262;73682;-60
2023/09/15 08:14:59;;;;;;;19.80;11.50;;;;;;;18.83;100.00;100575.79;105207;1257;61356;-60
2023/09/15 08:17:26;;;;;;;18.50;11.60;;;;;;;18.84;100.00;100580.98;105474;1257;61221;-64
2023/09/15 08:20:00;;;;;;;23.20;11.90;;;;;;;18.82;100.00;100586.53;105118;1260;74687;-62
2023/09/15 08:22:27;;;;;;;20.60;12.20;;;;;;;18.76;100.00;100587.08;105209;1257;67981;-61
2023/09/15 08:24:55;;;;;;;22.80;13.60;;;;;;;18.66;100.00;100592.57;105296;1262;74155;-60
2023/09/15 08:27:26;;;;;;;25.90;13.10;;;;;;;18.54;100.00;100592.32;105422;1257;61979;-62
2023/09/15 08:29:53;;;;;;;21.80;14.50;;;;;;;18.42;100.00;100592.30;105444;1257;60872;-60
2023/09/15 08:32:20;;;;;;;27.60;14.50;;;;;;;18.29;100.00;100588.35;105872;1262;76108;-65
2023/09/15 08:34:48;;;;;;;21.80;13.60;;;;;;;18.15;100.00;100587.29;105424;1257;68219;-60
2023/09/15 08:37:15;;;;;;;21.20;14.50;;;;;;;18.00;100.00;100591.96;105909;1259;71659;-63
2023/09/15 08:39:42;;;;;;;20.00;12.80;;;;;;;17.82;100.00;100597.02;105332;1262;61750;-60
2023/09/15 08:42:13;;;;;;;22.00;13.10;;;;;;;17.65;100.00;100598.17;105642;1258;61637;-62
2023/09/15 08:44:41;;;;;;;20.90;13.10;;;;;;;17.47;100.00;100601.26;105220;1258;74019;-62
2023/09/15 08:47:08;;;;;;;27.20;12.20;;;;;;;17.23;100.00;100601.07;105725;1257;67246;-62
2023/09/15 08:49:35;;;;;;;24.20;12.40;;;;;;;16.99;100.00;100604.61;105175;1258;74231;-60
2023/09/15 08:52:04;;;;;;;23.70;12.60;;;;;;;16.80;100.00;100603.65;105184;1262;61427;-60
2023/09/15 08:54:31;;;;;;;21.90;13.20;;;;;;;16.64;100.00;100615.96;105566;1258;61327;-61
2023/09/15 08:56:58;;;;;;;22.20;13.30;;;;;;;16.54;100.00;100626.73;104931;1261;74597;-60
2023/09/15 08:59:25;;;;;;;17.50;11.50;;;;;;;16.45;100.00;100633.34;105303;1257;68432;-61
2023/09/15 09:01:53;;;;;;;17.00;10.10;;;;;;;16.32;100.00;100638.00;105209;1257;75248;-60
2023/09/15 09:04:20;;;;;;;17.50;10.70;;;;;;;16.13;100.00;100643.89;105272;1262;62505;-65
2023/09/15 09:06:48;;;;;;;17.40;9.90;;;;;;;15.96;100.00;100648.21;105384;1261;62036;-60
2023/09/15 09:09:15;;;;;;;19.50;11.10;;;;;;;15.86;100.00;100650.96;105491;1258;74405;-61
2023/09/15 09:11:42;;;;;;;19.10;12.20;;;;;;;15.81;100.00;100652.95;105540;1262;68703;-60
2023/09/15 09:14:12;;;;;;;18.50;12.40;;;;;;;15.79;100.00;100654.58;105139;1262;72720;-59
2023/09/15 09:16:47;;;;;;;17.30;10.90;;;;;;;15.78;100.00;100658.87;105267;1258;62806;-61
2023/09/15 09:19:14;;;;;;;19.70;11.90;;;;;;;15.73;100.00;100657.23;105598;1258;61746;-59
2023/09/15 09:21:41;;;;;;;19.60;11.80;;;;;;;15.69;100.00;100656.95;105496;1257;75935;-65
2023/09/15 09:24:09;;;;;;;18.80;11.50;;;;;;;15.65;100.00;100653.56;105279;1258;67978;-60
2023/09/15 09:26:37;;;;;;;16.40;11.60;;;;;;;15.62;100.00;100646.43;105553;1258;74614;-60
2023/09/15 09:29:05;;;;;;;19.30;11.30;;;;;;;15.61;100.00;100646.55;105242;1258;63601;-60
2023/09/15 09:31:33;;;;;;;18.30;10.50;;;;;;;15.58;100.00;100647.13;105285;1257;62023;-60
2023/09/15 09:34:00;;;;;;;21.30;12.90;;;;;;;15.55;100.00;100650.48;105280;1262;74592;-59
2023/09/15 09:36:28;;;;;;;18.90;11.70;;;;;;;15.54;100.00;100653.33;105669;1257;67860;-60
2023/09/15 09:38:55;;;;;;;17.80;11.50;;;;;;;15.53;100.00;100661.16;105263;1257;70962;-59
2023/09/15 09:41:24;;;;;;;16.10;10.80;;;;;;;15.53;100.00;100663.52;105152;1262;61253;-59
2023/09/15 09:43:55;;;;;;;17.80;11.30;;;;;;;15.58;100.00;100669.40;105176;1258;61205;-58
2023/09/15 09:46:22;;;;;;;19.90;11.90;;;;;;;15.62;100.00;100675.70;105631;1260;76153;-61
2023/09/15 09:48:51;;;;;;;17.20;11.10;;;;;;;15.64;100.00;100680.17;105011;1259;68544;-60
2023/09/15 09:51:20;;;;;;;20.30;11.20;;;;;;;15.65;100.00;100680.00;105250;1259;72745;-61
2023/09/15 09:53:52;;;;;;;18.70;11.40;;;;;;;15.63;100.00;100681.52;104696;1260;62252;-58
2023/09/15 09:56:19;;;;;;;15.00;11.10;;;;;;;15.58;100.00;100683.08;105533;1257;61147;-62
2023/09/15 09:58:46;;;;;;;16.40;10.50;;;;;;;15.52;100.00;100685.42;104939;1259;76022;-61
2023/09/15 10:01:14;;;;;;;19.30;11.70;;;;;;;15.44;100.00;100689.56;104989;1258;67205;-62
2023/09/15 10:03:41;;;;;;;17.00;11.00;;;;;;;15.38;100.00;100692.80;105036;1258;71968;-62
2023/09/15 10:06:09;;;;;;;30.40;22.20;;;;;;;15.34;100.00;100688.52;104942;1258;62296;-62
2023/09/15 10:08:39;;;;;;;33.10;21.90;;;;;;;15.30;100.00;100687.42;105145;1257;61244;-69
2023/09/15 10:11:07;;;;;;;23.20;13.60;;;;;;;15.28;100.00;100688.44;105042;1258;72765;-61
2023/09/15 10:13:35;;;;;;;17.80;11.50;;;;;;;15.25;100.00;100689.00;105139;1262;68972;-66
2023/09/15 10:16:02;;;;;;;17.60;11.30;;;;;;;15.20;100.00;100684.80;105434;1262;72660;-59
2023/09/15 10:18:30;;;;;;;22.50;11.50;;;;;;;15.15;100.00;100683.36;105695;1257;63609;-68
2023/09/15 10:20:57;;;;;;;17.00;10.80;;;;;;;15.10;100.00;100684.40;105143;1262;60803;-60
2023/09/15 10:23:24;;;;;;;20.00;11.60;;;;;;;15.04;100.00;100677.58;105199;1261;76139;-67
2023/09/15 10:25:53;;;;;;;21.10;11.80;;;;;;;15.00;100.00;100678.87;104954;1262;68588;-60
2023/09/15 10:28:23;;;;;;;19.40;11.40;;;;;;;14.96;100.00;100683.55;105126;1260;72585;-59
2023/09/15 10:31:08;;;;;;;20.90;11.70;;;;;;;14.93;100.00;100687.11;105434;1262;62075;-66
2023/09/15 10:33:40;;;;;;;15.10;10.80;;;;;;;14.91;100.00;100686.13;105072;1262;60740;-60
2023/09/15 10:36:11;;;;;;;18.50;10.80;;;;;;;14.90;100.00;100684.72;105565;1262;76292;-66
2023/09/15 10:38:40;;;;;;;19.60;11.60;;;;;;;14.89;100.00;100682.70;105362;1262;68554;-59
2023/09/15 10:41:09;;;;;;;19.40;12.20;;;;;;;14.88;100.00;100684.30;105339;1257;73213;-66
2023/09/15 10:43:49;;;;;;;22.00;12.10;;;;;;;14.87;100.00;100683.18;105229;1257;63570;-58
2023/09/15 10:46:16;;;;;;;18.00;11.80;;;;;;;14.86;100.00;100684.52;105218;1257;61199;-60
2023/09/15 10:48:47;;;;;;;17.40;11.80;;;;;;;14.87;100.00;100684.44;105186;1260;74815;-58
2023/09/15 10:51:18;;;;;;;17.10;11.90;;;;;;;14.88;100.00;100679.06;105342;1261;67773;-60
2023/09/15 10:53:47;;;;;;;20.60;13.30;;;;;;;14.91;100.00;100677.30;105366;1257;74268;-59
2023/09/15 10:56:15;;;;;;;18.70;12.20;;;;;;;14.94;100.00;100683.35;105312;1262;61231;-63
2023/09/15 10:58:43;;;;;;;16.50;12.30;;;;;;;14.98;100.00;100684.89;105251;1262;61635;-58